Latest Coastal Weather Observations for Moorabbin Airport

IDV60701

Issued at 5:02 pm EST Monday 26 September 2016 (issued every 10 minutes, with the page automatically refreshed every 10 minutes)

About coastal observations | Map of coastal stations | Coastal observations for VIC | Marine services | Other Formats
Station Details ID: 086077 Name: MOORABBIN AIRPORT Lat: -37.98 Lon: 145.10 Height: 12.1 m
Data from the previous 72 hours. | See also: Recent months at Moorabbin Airport
Date/Time
EST
Temp
°C
Wind Pressure Rain since
9am
mm
Weather Cloud Vis
km
Sea
Height
m
Swell
Dir  Spd
kts
Gust
kts
hPa Trend Height
m
Period
s
Dir
26/05:00pm 14.7 WNW 4 7 1008.5 - 0.2 - Partly cloudy 10 - - - -
26/04:30pm 15.2 WNW 8 13 1008.8 - 0.0 - Partly cloudy 10 - - - -
26/04:00pm 15.7 N 10 14 1008.7 - 0.0 - Cloudy 10 - - - -
26/03:30pm 15.3 W 8 21 1008.8 - 0.0 - Partly cloudy 10 - - - -
26/03:00pm 15.8 WSW 5 7 1008.9 - 0.0 - Cloudy 10 - - - -
26/02:30pm 15.3 W 7 10 1009.3 - 0.0 - Partly cloudy 10 - - - -
26/02:00pm 15.4 SW 6 11 1009.6 - 0.0 - Partly cloudy 10 - - - -
26/01:30pm 15.8 WNW 7 13 1009.7 - 0.0 - Partly cloudy 10 - - - -
26/01:00pm 16.2 WNW 9 15 1010.1 - 0.0 - Partly cloudy 10 - - - -
26/12:30pm 16.1 WNW 8 15 1010.7 - 0.0 - Partly cloudy 10 - - - -
26/12:00pm 15.2 NW 9 14 1011.2 - 0.0 - Mostly clear 10 - - - -
26/11:30am 15.3 NW 7 12 1011.5 - 0.0 - Partly cloudy 10 - - - -
26/11:00am 14.8 WNW 8 13 1011.9 - 0.0 - Partly cloudy 10 - - - -
26/10:30am 14.5 NW 8 13 1012.4 - 0.0 - Partly cloudy 10 - - - -
26/10:00am 13.8 NW 7 9 1012.5 - 0.0 - Partly cloudy 10 - - - -
26/09:30am 13.4 NW 9 13 1012.7 - 0.0 - - 10 - - - -
26/09:00am 13.0 N 10 13 1012.7 - 0.2 - - 10 - - - -
26/08:30am 12.0 N 8 13 1012.9 - 0.2 - - 10 - - - -
26/08:00am 10.5 N 8 10 1013.0 - 0.2 - - 10 - - - -
26/07:30am 8.9 N 6 8 1013.2 - 0.2 - - 10 - - - -
26/07:00am 9.1 N 6 7 1013.2 - 0.2 - Partly cloudy 10 - - - -
26/06:30am 8.7 N 7 8 1013.0 - 0.2 - Partly cloudy 10 - - - -
26/06:00am 8.7 NNE 6 7 1012.8 - 0.2 Recent precip. Cloudy 10 - - - -
26/05:30am 8.7 N 6 8 1013.0 - 0.0 - Partly cloudy 9 - - - -
26/05:00am 9.0 NNW 6 7 1013.0 - 0.0 - Partly cloudy 10 - - - -
26/04:30am 8.8 N 6 8 1012.8 - 0.0 - Cloudy 10 - - - -
26/04:00am 8.7 NNW 5 7 1012.7 - 0.0 - Partly cloudy 10 - - - -
26/03:30am 8.7 N 4 5 1012.8 - 0.0 - Cloudy 10 - - - -
26/03:00am 8.2 NNW 4 4 1013.1 - 0.0 - Cloudy 10 - - - -
26/02:30am 8.0 N 4 4 1013.2 - 0.0 - Partly cloudy 10 - - - -
26/02:00am 7.7 NNW 4 5 1013.3 - 0.0 - - 10 - - - -
26/01:30am 7.6 N 4 4 1013.4 - 0.0 - - 10 - - - -
26/01:00am 7.6 NNE 4 4 1013.6 - 0.0 - - 10 - - - -
26/12:30am 8.0 NNW 3 3 1013.8 - 0.0 - - 10 - - - -
26/12:00am 8.5 NNE 3 5 1013.9 - 0.0 - Partly cloudy 10 - - - -
 
Date/Time
EST
Temp
°C
Wind Pressure Rain since
9am
mm
Weather Cloud Vis
km
Sea
Height
m
Swell
Dir  Spd
kts
Gust
kts
hPa Trend Height
m
Period
s
Dir
25/11:30pm 8.8 NNE 4 4 1014.0 - 0.0 - Partly cloudy 10 - - - -
25/11:00pm 9.2 CALM 0 0 1014.3 - 0.0 - Partly cloudy 10 - - - -
25/10:30pm 10.1 CALM 0 0 1014.5 - 0.0 - Partly cloudy 10 - - - -
25/10:00pm 10.4 NNE 3 4 1014.7 - 0.0 - Cloudy 10 - - - -
25/09:30pm 9.9 ESE 3 3 1014.5 - 0.0 - Partly cloudy 10 - - - -
25/09:00pm 9.6 SE 4 5 1014.4 - 0.0 - Cloudy 10 - - - -
25/08:30pm 10.4 SE 5 6 1014.3 - 0.0 - Partly cloudy 10 - - - -
25/08:00pm 11.7 SSW 7 9 1014.0 - 0.0 - Partly cloudy 10 - - - -
25/07:30pm 11.7 SSW 6 8 1013.6 - 0.0 - Partly cloudy 10 - - - -
25/07:00pm 11.4 SSW 7 9 1013.0 - 0.0 - Partly cloudy 10 - - - -
25/06:30pm 11.3 SSW 6 8 1012.6 - 0.0 - Partly cloudy 10 - - - -
25/06:00pm 11.6 SSW 8 11 1012.2 - 0.0 - Mostly clear 10 - - - -
25/05:30pm 12.4 SSW 8 11 1012.3 - 0.0 - Cloudy 10 - - - -
25/05:00pm 12.5 SSW 9 12 1012.1 - 0.0 - Partly cloudy 10 - - - -
25/04:30pm 13.0 SSW 8 11 1011.8 - 0.0 - - 10 - - - -
25/04:00pm 13.4 SSW 8 11 1011.7 - 0.0 - - 10 - - - -
25/03:30pm 13.5 SSW 8 11 1011.7 - 0.0 - - 10 - - - -
25/03:00pm 13.2 SSW 9 13 1011.9 - 0.0 - Mostly cloudy 10 - - - -
25/02:30pm 12.7 SSW 9 13 1012.0 - 0.0 - Partly cloudy 10 - - - -
25/02:00pm 13.6 SSW 8 11 1011.8 - 0.0 - Partly cloudy 10 - - - -
25/01:30pm 12.3 SSW 19 26 1012.0 - 0.0 - Partly cloudy 10 - - - -
25/01:19pm 12.2 WSW 15 30 1012.1 - 0.0 - Partly cloudy 10 - - - -
25/01:00pm 14.2 WSW 11 17 1011.8 - 0.0 - Partly cloudy 10 - - - -
25/12:30pm 13.9 W 12 17 1011.9 - 0.0 - Partly cloudy 10 - - - -
25/12:00pm 13.1 W 13 17 1011.9 - 0.0 - Mostly clear 10 - - - -
25/11:30am 13.1 WSW 13 18 1011.8 - 0.0 - - 10 - - - -
25/11:00am 13.1 W 12 17 1011.8 - 0.0 - Partly cloudy 10 - - - -
25/10:30am 12.3 W 12 17 1011.7 - 0.0 - - 10 - - - -
25/10:00am 12.3 W 13 19 1011.7 - 0.0 - - 10 - - - -
25/09:30am 11.9 W 11 17 1011.5 - 0.0 - - 10 - - - -
25/09:00am 11.8 W 10 15 1011.2 - 5.0 - - 10 - - - -
25/08:30am 11.2 W 11 16 1010.9 - 5.0 - - 10 - - - -
25/08:00am 10.9 W 12 18 1010.5 - 5.0 - - 10 - - - -
25/07:30am 10.8 W 10 17 1010.1 - 5.0 - Partly cloudy 10 - - - -
25/07:00am 10.2 W 8 15 1009.9 - 5.0 - Cloudy 10 - - - -
25/06:30am 10.3 W 10 15 1009.4 - 5.0 - Cloudy 10 - - - -
25/06:00am 10.5 W 9 15 1008.9 - 5.0 - Cloudy 10 - - - -
25/05:30am 10.8 W 9 15 1008.6 - 5.0 - Partly cloudy 10 - - - -
25/05:00am 11.0 W 12 18 1008.3 - 5.0 - Partly cloudy 10 - - - -
25/04:30am 11.3 W 10 16 1007.8 - 5.0 - Partly cloudy 10 - - - -
25/04:00am 11.5 W 8 10 1007.5 - 5.0 - Partly cloudy 10 - - - -
25/03:30am 11.7 W 11 16 1007.1 - 5.0 - Partly cloudy 10 - - - -
25/03:00am 12.0 W 8 15 1006.9 - 5.0 - Cloudy 10 - - - -
25/02:30am 12.2 W 9 14 1006.8 - 5.0 - Cloudy 10 - - - -
25/02:00am 12.0 NW 7 9 1006.7 - 5.0 - Partly cloudy 10 - - - -
25/01:30am 12.3 NW 9 14 1006.9 - 5.0 - Partly cloudy 10 - - - -
25/01:16am 12.5 NNW 8 11 1006.8 - 4.6 - Partly cloudy 10 - - - -
25/01:00am 12.3 NNW 7 8 1006.7 - 4.6 - Partly cloudy 5 - - - -
25/12:59am 12.4 NNW 7 8 1006.7 - 4.4 - Partly cloudy 5 - - - -
25/12:30am 12.4 N 8 10 1006.4 - 3.6 - Partly cloudy 10 - - - -
25/12:00am 12.4 N 5 7 1006.5 - 2.8 Rain Cloudy 8 - - - -
 
Date/Time
EST
Temp
°C
Wind Pressure Rain since
9am
mm
Weather Cloud Vis
km
Sea
Height
m
Swell
Dir  Spd
kts
Gust
kts
hPa Trend Height
m
Period
s
Dir
24/11:30pm 12.6 NNW 5 7 1006.7 - 1.4 - Partly cloudy 7 - - - -
24/11:00pm 13.1 NNW 6 8 1006.7 - 0.4 - Partly cloudy 10 - - - -
24/10:30pm 13.5 NNW 8 11 1006.6 - 0.0 - Partly cloudy 10 - - - -
24/10:00pm 14.2 NNW 9 12 1006.5 - 0.0 - Partly cloudy 10 - - - -
24/09:30pm 14.2 NNW 8 11 1006.4 - 0.0 - Cloudy 10 - - - -
24/09:00pm 14.5 NNW 10 13 1006.4 - 0.0 - Cloudy 10 - - - -
24/08:30pm 14.7 NNW 13 20 1006.5 - 0.0 - Partly cloudy 10 - - - -
24/08:00pm 15.3 NNW 11 18 1006.4 - 0.0 - Partly cloudy 10 - - - -
24/07:30pm 15.7 N 14 21 1006.2 - 0.0 - Cloudy 10 - - - -
24/07:00pm 16.4 NNW 16 26 1005.9 - 0.0 - Partly cloudy 10 - - - -
24/06:30pm 17.1 N 14 18 1005.8 - 0.0 - Partly cloudy 10 - - - -
24/06:00pm 17.2 N 15 23 1005.8 - 0.0 - Cloudy 10 - - - -
24/05:30pm 17.4 N 15 21 1005.7 - 0.0 - Partly cloudy 10 - - - -
24/05:00pm 17.6 N 14 21 1005.4 - 0.0 - - 10 - - - -
24/04:30pm 18.1 N 15 24 1005.2 - 0.0 - Partly cloudy 10 - - - -
24/04:00pm 18.3 N 18 23 1005.2 - 0.0 - Partly cloudy 10 - - - -
24/03:36pm 19.3 N 18 28 1005.0 - 0.0 - Partly cloudy 10 - - - -
24/03:30pm 18.9 N 17 23 1005.2 - 0.0 - Partly cloudy 10 - - - -
24/03:00pm 18.7 N 20 30 1005.6 - 0.0 - Partly cloudy 10 - - - -
24/02:49pm 19.1 N 18 28 1005.7 - 0.0 - Partly cloudy 10 - - - -
24/02:30pm 19.3 N 18 26 1005.6 - 0.0 - Partly cloudy 10 - - - -
24/02:00pm 19.2 N 19 28 1005.9 - 0.0 - Partly cloudy 10 - - - -
24/01:30pm 19.5 N 19 29 1006.3 - 0.0 - Partly cloudy 10 - - - -
24/01:27pm 19.0 N 18 29 1006.0 - 0.0 - Partly cloudy 10 - - - -
24/01:00pm 19.1 N 16 25 1006.3 - 0.0 - Partly cloudy 10 - - - -
24/12:30pm 19.1 N 18 25 1006.8 - 0.0 - Partly cloudy 10 - - - -
24/12:00pm 18.2 N 14 24 1007.2 - 0.0 - Mostly clear 10 - - - -
24/11:30am 18.7 N 16 22 1007.4 - 0.0 - - 10 - - - -
24/11:00am 19.2 N 16 21 1007.8 - 0.0 - - 10 - - - -
24/10:35am 17.5 N 17 27 1007.9 - 0.0 - - 10 - - - -
24/10:30am 17.7 N 17 25 1008.1 - 0.0 - - 10 - - - -
24/10:00am 16.8 N 18 25 1008.7 - 0.0 - Partly cloudy 10 - - - -
24/09:30am 16.1 N 16 21 1009.2 - 0.0 - - 10 - - - -
24/09:00am 15.6 N 15 22 1009.6 - 0.0 - - 10 - - - -
24/08:30am 15.2 N 13 18 1009.7 - 0.0 - - 10 - - - -
24/08:00am 14.1 N 10 13 1009.9 - 0.0 - - 10 - - - -
24/07:30am 12.7 N 6 8 1010.1 - 0.0 - Partly cloudy 10 - - - -
24/07:00am 11.2 N 6 7 1010.1 - 0.0 - Partly cloudy 10 - - - -
24/06:30am 10.3 N 5 7 1010.0 - 0.0 - Partly cloudy 10 - - - -
24/06:00am 10.1 N 6 7 1009.9 - 0.0 - Partly cloudy 10 - - - -
24/05:30am 10.8 N 5 8 1009.8 - 0.0 - Partly cloudy 10 - - - -
24/05:00am 11.1 N 5 5 1009.7 - 0.0 - Cloudy 10 - - - -
24/04:30am 10.2 N 5 6 1009.8 - 0.0 - Cloudy 10 - - - -
24/04:00am 8.5 CALM 0 0 1009.8 - 0.0 - Partly cloudy 10 - - - -
24/03:30am 8.4 CALM 0 0 1009.9 - 0.0 - Partly cloudy 9 - - - -
24/03:00am 9.1 ENE 3 4 1010.0 - 0.0 - Partly cloudy 10 - - - -
24/02:30am 8.8 CALM 0 0 1010.4 - 0.0 - Partly cloudy 10 - - - -
24/02:00am 9.0 CALM 0 0 1010.7 - 0.0 - Partly cloudy 10 - - - -
24/01:30am 9.2 NW 2 3 1011.0 - 0.0 - Partly cloudy 10 - - - -
24/01:00am 8.8 CALM 0 0 1011.1 - 0.0 - Partly cloudy 9 - - - -
24/12:30am 9.5 CALM 0 0 1010.8 - 0.0 - Partly cloudy 10 - - - -
24/12:00am 9.6 ESE 4 5 1010.8 - 0.0 - Mostly clear 10 - - - -
 
Date/Time
EST
Temp
°C
Wind Pressure Rain since
9am
mm
Weather Cloud Vis
km
Sea
Height
m
Swell
Dir  Spd
kts
Gust
kts
hPa Trend Height
m
Period
s
Dir
23/11:30pm 9.6 SE 3 3 1010.9 - 0.0 - - 10 - - - -
23/11:00pm 10.3 CALM 0 0 1011.0 - 0.0 - - 10 - - - -
23/10:30pm 11.2 CALM 0 0 1011.1 - 0.0 - - 10 - - - -
23/10:00pm 11.0 E 4 4 1011.1 - 0.0 - - 10 - - - -
23/09:30pm 11.7 CALM 0 0 1011.4 - 0.0 - - 10 - - - -
23/09:00pm 12.1 CALM 0 4 1011.6 - 0.0 - Cloudy 10 - - - -
23/08:30pm 12.3 ESE 3 4 1011.5 - 0.0 - Partly cloudy 10 - - - -
23/08:00pm 12.2 SE 4 5 1011.4 - 0.0 - - 10 - - - -
23/07:30pm 12.6 SSE 3 4 1011.7 - 0.0 - Partly cloudy 10 - - - -
23/07:00pm 12.8 SSW 5 6 1011.7 - 0.0 - Partly cloudy 10 - - - -
23/06:30pm 13.0 SSW 7 10 1011.4 - 0.0 - - 10 - - - -
23/06:00pm 13.3 SW 7 10 1011.6 - 0.0 - - 10 - - - -
23/05:30pm 14.1 SW 7 10 1011.5 - 0.0 - - 10 - - - -

Other Formats:

Comma delimited format used in spreadsheet applications
http://www.bom.gov.au/fwo/IDV60701/IDV60701.94870.axf

JavaScript Object Notation format (JSON) in row-major order
http://www.bom.gov.au/fwo/IDV60701/IDV60701.94870.json